Terminal Aerodrome Forecast
Issued by NWS

Home | Current Version | Previous Version | Text Only | Print | Product List | Glossary On
Versions: 1 2 3 4 5 6 7 8 9 10 11 12 13 14
000
FTUS46 KSEW 300500
TAFBFI
TAF
KBFI 300530Z 3006/3106 20006KT P6SM OVC045
     FM301700 19008KT P6SM SCT050 BKN100 OVC200
     FM310300 19012G18KT P6SM -RA OVC025=

USA.gov is the U.S. government's official web portal to all federal, state and local government web resources and services.